Hawthorne, Alabama
Current Conditions -  °F | °C
As of 12:56 AM on Monday 24 Nov 2014 (Local Time) from KMOB Reporting Station
Overcast Overcast  
Wind Chill: 69°   Ceiling: 1000
Heat Index: 69°   Visibility: 10mi
Dew Point: 68°   Wind: 9mph
Humidity: 96%   Direction: 210°SSW
Pressure: 29.77"   Gusts: NA
Location:  31.1944°N, 88.2946°W
Report Text: KMOB 240656Z AUTO 21008KT 10SM OVC010 21/20 A2977 RMK AO2 SLP077 T02060200 $
Loading
Personal Weather Stations






























Interactive Weather Map New forecast layout! Learn more

10-Day Weather Forecast

Advertisements
Track Severe Weather on mobile